createdAt,value
2018-07-28T07:47:37.837Z,2.9
2018-07-28T07:50:36.347Z,3.6
2018-07-28T07:53:36.528Z,3.2
2018-07-28T07:56:36.560Z,2.8
2018-07-28T07:59:36.741Z,3.9
2018-07-28T08:02:36.566Z,5.7
2018-07-28T08:05:36.627Z,3.6
2018-07-28T08:08:36.519Z,4.4
2018-07-28T08:11:36.716Z,6.1
2018-07-28T08:14:36.350Z,4.4
2018-07-28T08:17:36.692Z,5.1
2018-07-28T08:20:36.407Z,3.6
2018-07-28T08:23:36.899Z,3.7
2018-07-28T08:26:36.679Z,3.8
2018-07-28T08:29:36.515Z,3.1
2018-07-28T08:32:36.468Z,3
2018-07-28T08:35:36.598Z,3.5
2018-07-28T08:38:36.321Z,2.7
2018-07-28T08:41:36.361Z,3
2018-07-28T08:44:36.544Z,5.2
2018-07-28T08:47:36.262Z,3.7
2018-07-28T08:50:36.470Z,2.9
2018-07-28T08:53:36.456Z,2.8
2018-07-28T08:56:36.520Z,5.8
2018-07-28T08:59:36.577Z,3.7
2018-07-28T09:02:36.641Z,5
2018-07-28T09:05:36.923Z,3.9
2018-07-28T09:08:37.578Z,4.5
2018-07-28T09:11:36.491Z,5.3
2018-07-28T09:14:36.538Z,4.3
2018-07-28T09:17:36.384Z,5.5
2018-07-28T09:20:36.643Z,5.2
2018-07-28T09:23:37.736Z,3.7
2018-07-28T09:26:36.469Z,6
2018-07-28T09:29:36.499Z,6
2018-07-28T09:32:36.462Z,4.1
2018-07-28T09:35:36.519Z,5.5
2018-07-28T09:38:36.423Z,10.4
2018-07-28T09:41:36.575Z,6.1
2018-07-28T09:44:36.394Z,4.8
2018-07-28T09:47:36.255Z,9.5
2018-07-28T09:50:36.436Z,4.3
2018-07-28T09:53:36.414Z,9.3
2018-07-28T09:56:36.384Z,10.9
2018-07-28T09:59:36.464Z,12.7
2018-07-28T10:02:36.319Z,12.2
2018-07-28T10:05:38.133Z,5.5
2018-07-28T10:08:36.509Z,6
2018-07-28T10:11:36.427Z,7.2
2018-07-28T10:14:36.345Z,7.9
2018-07-28T10:17:36.402Z,12.2
2018-07-28T10:20:36.576Z,7.9
2018-07-28T10:23:36.460Z,6.6
2018-07-28T10:26:36.318Z,8.4
2018-07-28T10:29:36.498Z,10.2
2018-07-28T10:32:36.441Z,8.3
2018-07-28T10:35:36.422Z,7.7
2018-07-28T10:38:36.511Z,9
2018-07-28T10:41:36.351Z,6.4
2018-07-28T10:44:36.511Z,8.7
2018-07-28T10:47:36.454Z,10
2018-07-28T10:50:36.336Z,5.4
2018-07-28T11:04:59.881Z,7
2018-07-28T11:14:14.940Z,9.8
2018-07-28T11:17:15.033Z,7
2018-07-28T11:27:58.878Z,14
2018-07-28T11:30:59.027Z,9.9
2018-07-28T11:33:59.035Z,7.7
2018-07-28T11:36:58.832Z,10.9
2018-07-28T11:39:59.052Z,17.9
2018-07-28T11:42:58.879Z,12.7
2018-07-28T11:46:00.498Z,13.8
2018-07-28T11:48:59.091Z,9
2018-07-28T11:54:58.899Z,10.6
2018-07-28T11:57:59.759Z,10.2
2018-07-28T12:00:59.017Z,9.7
2018-07-28T12:03:58.815Z,10.2
2018-07-28T12:06:59.060Z,7.2
2018-07-28T12:09:58.928Z,7.6
2018-07-28T12:12:59.058Z,6.7
2018-07-28T12:15:58.804Z,8.7
2018-07-28T12:18:58.936Z,5.8
2018-07-28T12:24:59.047Z,7
2018-07-28T12:27:58.907Z,5.1
2018-07-28T12:30:58.783Z,5.2
2018-07-28T12:33:58.900Z,6.5
2018-07-28T12:36:59.046Z,5.8
2018-07-28T12:39:58.778Z,5.8
2018-07-28T12:42:59.028Z,7.2
2018-07-28T12:45:59.045Z,4.6
2018-07-28T12:48:58.801Z,4.6
2018-07-28T12:54:58.946Z,4.6
2018-07-28T12:57:58.798Z,9.8
2018-07-28T13:00:58.915Z,5
2018-07-28T13:04:00.649Z,5.3
2018-07-28T13:06:58.789Z,5.1
2018-07-28T13:09:59.093Z,5
2018-07-28T13:12:59.276Z,4.7
2018-07-28T13:15:58.780Z,4.7
2018-07-28T13:18:58.964Z,5.4
2018-07-28T13:24:58.932Z,4.3
2018-07-28T13:27:59.022Z,4.5
2018-07-28T13:30:59.100Z,6
2018-07-28T13:33:58.770Z,6.4
2018-07-28T13:36:58.863Z,8.3
2018-07-28T13:39:58.971Z,6
2018-07-28T13:42:58.799Z,4.5
2018-07-28T13:45:58.874Z,4.2
2018-07-28T13:48:59.084Z,5.5
2018-07-28T13:54:58.810Z,5.3
2018-07-28T13:57:58.861Z,5.2
2018-07-28T14:00:58.950Z,5.3
2018-07-28T14:03:59.055Z,4.3
2018-07-28T14:06:59.130Z,5.6
2018-07-28T14:09:58.991Z,6.5
2018-07-28T14:12:59.126Z,4.3
2018-07-28T14:15:59.000Z,6.8
2018-07-28T14:18:58.893Z,6.5
2018-07-28T14:25:00.011Z,6.4
2018-07-28T14:27:58.909Z,5.9
2018-07-28T14:30:58.992Z,4.1
2018-07-28T14:33:59.034Z,5.6
2018-07-28T14:36:58.766Z,4.4
2018-07-28T14:39:58.983Z,5
2018-07-28T14:42:58.855Z,4.2
2018-07-28T14:45:58.863Z,3.7
2018-07-28T14:48:58.896Z,5
2018-07-28T14:54:58.853Z,5.1
2018-07-28T14:57:58.931Z,3.7
2018-07-28T15:00:58.801Z,4
2018-07-28T15:03:58.968Z,3.9
2018-07-28T15:06:59.783Z,4
2018-07-28T15:09:59.182Z,3.7
2018-07-28T15:12:59.017Z,4.1
2018-07-28T15:15:58.788Z,4
2018-07-28T15:18:58.839Z,5.1
2018-07-28T15:24:58.977Z,9
2018-07-28T15:27:58.912Z,4.8
2018-07-28T15:30:59.064Z,4.5
2018-07-28T15:33:58.892Z,10.5
2018-07-28T15:37:00.092Z,5.5
2018-07-28T15:39:59.274Z,6.4
2018-07-28T15:42:58.891Z,8
2018-07-28T15:45:58.884Z,8.2
2018-07-28T15:48:59.130Z,9.4
2018-07-28T15:54:58.801Z,7
2018-07-28T15:57:58.874Z,6.1
2018-07-28T16:00:58.803Z,7.1
2018-07-28T16:03:59.138Z,8.1
2018-07-28T16:06:58.746Z,6.7
2018-07-28T16:09:58.702Z,6.1
2018-07-28T16:12:58.961Z,6.4
2018-07-28T16:15:58.860Z,4.6
2018-07-28T16:18:58.702Z,7
2018-07-28T16:25:30.349Z,6.6
2018-07-28T16:28:30.528Z,6.1
2018-07-28T16:32:58.751Z,4.3
2018-07-28T16:35:58.713Z,5.7
2018-07-28T16:38:58.909Z,4.6
2018-07-28T16:41:58.898Z,5.1
2018-07-28T16:44:58.867Z,5.6
2018-07-28T16:47:58.886Z,4.7
2018-07-28T16:50:59.209Z,4.3
2018-07-28T16:53:58.691Z,4.2
2018-07-28T16:56:58.784Z,5
2018-07-28T16:59:58.988Z,4.6
2018-07-28T17:02:58.662Z,3.8
2018-07-28T17:05:58.950Z,4.5
2018-07-28T17:08:58.747Z,6.5
2018-07-28T17:11:58.664Z,4.3
2018-07-28T17:14:58.753Z,3.8
2018-07-28T17:17:58.822Z,4.2
2018-07-28T17:20:58.802Z,5
2018-07-28T17:23:58.868Z,3.8
2018-07-28T17:26:58.844Z,4.3
2018-07-28T17:29:58.726Z,5.7
2018-07-28T17:32:58.742Z,3.9
2018-07-28T17:35:58.775Z,4.3
2018-07-28T17:38:58.790Z,4.8
2018-07-28T17:41:58.904Z,3.8
2018-07-28T17:44:58.867Z,3.8
2018-07-28T17:47:58.768Z,3.8
2018-07-28T17:50:58.866Z,3.8
2018-07-28T17:53:59.055Z,6.9
2018-07-28T17:56:58.856Z,4
2018-07-28T18:00:00.975Z,3.7
2018-07-28T18:02:58.899Z,4.4
2018-07-28T18:05:58.740Z,3.7
2018-07-28T18:08:58.805Z,5.2
2018-07-28T18:11:58.743Z,4.8
2018-07-28T18:14:58.877Z,4
2018-07-28T18:17:59.098Z,4.2
2018-07-28T18:20:58.776Z,3.9
2018-07-28T18:24:00.226Z,3.7
2018-07-28T18:26:58.808Z,4.7
2018-07-28T18:29:58.755Z,4.4
2018-07-28T18:32:58.730Z,4.5
2018-07-28T18:35:58.725Z,5
2018-07-28T18:38:58.872Z,4.1
2018-07-28T18:41:58.730Z,4.1
2018-07-28T18:44:59.033Z,4.3
2018-07-28T18:47:59.065Z,3.4
2018-07-28T18:50:59.913Z,4.1
2018-07-28T18:53:58.751Z,3.6
2018-07-28T18:56:58.662Z,3.6
2018-07-28T18:59:58.771Z,4.7
2018-07-28T19:02:58.813Z,4.1
2018-07-28T19:05:58.728Z,3.7
2018-07-28T19:08:58.794Z,3.7
2018-07-28T19:11:59.816Z,3.8
2018-07-28T19:14:58.915Z,4
2018-07-28T19:17:59.295Z,7.7
2018-07-28T19:20:59.934Z,4.4
2018-07-28T19:23:58.857Z,6.1
2018-07-28T19:26:58.828Z,4.2
2018-07-28T19:29:58.728Z,7
2018-07-28T19:32:59.093Z,5
2018-07-28T19:35:58.648Z,8.1
2018-07-28T19:38:58.848Z,5.9
2018-07-28T19:41:58.736Z,4.7
2018-07-28T19:44:58.657Z,6.4
2018-07-28T19:47:58.852Z,5.5
2018-07-28T19:50:58.876Z,5.6
2018-07-28T19:53:59.069Z,4.5
2018-07-28T19:56:58.767Z,5.8
2018-07-28T19:59:58.901Z,4.3
2018-07-28T20:02:58.690Z,6.9
2018-07-28T20:05:58.831Z,4.3
2018-07-28T20:08:59.116Z,6.4
2018-07-28T20:11:58.651Z,4.8
2018-07-28T20:14:58.856Z,4.8
2018-07-28T20:17:58.859Z,6
2018-07-28T20:20:58.587Z,5.4
2018-07-28T20:23:58.882Z,5.6
2018-07-28T20:26:58.976Z,5.2
2018-07-28T20:29:59.277Z,4.6
2018-07-28T20:32:58.877Z,6.3
2018-07-28T20:35:58.813Z,3.9
2018-07-28T20:38:58.813Z,4.6
2018-07-28T20:41:58.736Z,4.7
2018-07-28T20:44:58.755Z,4.3
2018-07-28T20:47:58.739Z,4.3
2018-07-28T20:50:59.302Z,3.8
2018-07-28T20:53:58.895Z,5.4
2018-07-28T20:56:58.678Z,4.1
2018-07-28T20:59:58.735Z,4.3
2018-07-28T21:02:58.752Z,4
2018-07-28T21:05:58.841Z,4.6
2018-07-28T21:08:58.922Z,4.7
2018-07-28T21:11:58.644Z,4.3
2018-07-28T21:14:59.991Z,3.7
2018-07-28T21:17:58.839Z,3.5
2018-07-28T21:20:58.750Z,4
2018-07-28T21:23:58.859Z,3.8
2018-07-28T21:26:59.218Z,4.1
2018-07-28T21:29:58.842Z,3.6
2018-07-28T21:32:58.890Z,3.5
2018-07-28T21:35:58.724Z,3.6
2018-07-28T21:38:58.818Z,3.5
2018-07-28T21:41:58.717Z,3.7
2018-07-28T21:44:58.722Z,3.5
2018-07-28T21:47:58.681Z,4.2
2018-07-28T21:50:58.630Z,3.6
2018-07-28T21:53:58.957Z,5.7
2018-07-28T21:56:58.755Z,4.1
2018-07-28T21:59:58.631Z,3.6
2018-07-28T22:02:58.728Z,3.9
2018-07-28T22:05:58.895Z,3.9
2018-07-28T22:08:58.761Z,3.1
2018-07-28T22:11:58.685Z,3.4
2018-07-28T22:14:58.685Z,4.2
2018-07-28T22:17:58.627Z,3.4
2018-07-28T22:20:58.626Z,3.7
2018-07-28T22:24:00.148Z,3.9
2018-07-28T22:26:58.757Z,3.4
2018-07-28T22:29:58.750Z,3.1
2018-07-28T22:32:58.660Z,3.3
2018-07-28T22:35:58.756Z,3.2
2018-07-28T22:38:58.801Z,3.5
2018-07-28T22:41:58.686Z,3.6
2018-07-28T22:44:58.522Z,3.3
2018-07-28T22:47:58.924Z,3
2018-07-28T22:50:58.830Z,3.1
2018-07-28T22:53:58.612Z,3.2
2018-07-28T22:56:58.865Z,3.2
2018-07-28T22:59:58.701Z,3.2
2018-07-28T23:02:58.852Z,3.3
2018-07-28T23:05:58.705Z,3.1
2018-07-28T23:08:58.981Z,3.5
2018-07-28T23:11:58.644Z,3.2
2018-07-28T23:14:58.875Z,3.1
2018-07-28T23:17:58.639Z,3.2
2018-07-28T23:20:58.678Z,3.3
2018-07-28T23:23:58.866Z,3.4
2018-07-28T23:26:58.722Z,3.5
2018-07-28T23:29:58.494Z,3.2
2018-07-28T23:32:58.682Z,3.3
2018-07-28T23:35:58.802Z,3
2018-07-28T23:38:58.564Z,3.2
2018-07-28T23:41:58.750Z,3.1
2018-07-28T23:44:58.847Z,3.2
